createdAt,value
2019-05-06T00:01:27.256Z,8.67
2019-05-06T00:05:29.827Z,8.80
2019-05-06T00:09:34.732Z,11.70
2019-05-06T00:13:36.935Z,10.63
2019-05-06T00:17:39.507Z,9.10
2019-05-06T00:21:44.201Z,10.13
2019-05-06T00:26:04.051Z,9.43
2019-05-06T00:30:08.693Z,10.23
2019-05-06T00:34:13.891Z,8.80
2019-05-06T00:38:16.472Z,9.97
2019-05-06T00:42:39.278Z,8.40
2019-05-06T00:46:43.692Z,10.53
2019-05-06T00:50:46.202Z,11.77
2019-05-06T00:54:48.750Z,7.40
2019-05-06T00:58:51.330Z,8.47
2019-05-06T01:02:54.312Z,12.20
2019-05-06T01:06:57.040Z,8.63
2019-05-06T01:11:00.031Z,11.40
2019-05-06T01:15:04.038Z,5.60
2019-05-06T01:19:06.578Z,12.40
2019-05-06T01:23:14.238Z,8.50
2019-05-06T01:27:16.738Z,10.80
2019-05-06T01:31:19.281Z,9.57
2019-05-06T01:35:21.942Z,9.63
2019-05-06T01:39:47.371Z,8.87
2019-05-06T01:43:57.893Z,10.40
2019-05-06T01:47:56.203Z,9.67
2019-05-06T01:51:58.766Z,7.43
2019-05-06T01:56:01.377Z,12.40
2019-05-06T02:00:07.463Z,10.07
2019-05-06T02:04:11.004Z,9.10
2019-05-06T02:08:13.591Z,11.07
2019-05-06T02:12:16.073Z,9.73
2019-05-06T02:16:18.612Z,12.40
2019-05-06T02:20:21.162Z,9.90
2019-05-06T02:24:28.589Z,9.10
2019-05-06T02:28:31.171Z,12.43
2019-05-06T02:32:55.417Z,9.63
2019-05-06T02:37:06.373Z,8.13
2019-05-06T02:41:07.931Z,11.70
2019-05-06T02:45:12.709Z,12.70
2019-05-06T02:49:44.017Z,12.43
2019-05-06T02:53:45.018Z,8.93
2019-05-06T02:57:47.574Z,10.77
2019-05-06T03:01:50.260Z,10.30
2019-05-06T03:05:53.446Z,13.00
2019-05-06T03:09:57.825Z,9.53
2019-05-06T03:14:03.030Z,8.70
2019-05-06T03:18:04.758Z,10.03
2019-05-06T03:22:34.695Z,12.87
2019-05-06T03:26:37.304Z,8.87
2019-05-06T03:30:45.146Z,10.17
2019-05-06T03:35:05.635Z,8.90
2019-05-06T03:38:49.621Z,7.80
2019-05-06T03:42:54.157Z,8.43
2019-05-06T03:47:27.762Z,10.93
2019-05-06T03:51:30.335Z,10.73
2019-05-06T03:55:34.344Z,11.33
2019-05-06T03:59:37.801Z,13.23
2019-05-06T04:03:47.539Z,11.57
2019-05-06T04:07:48.219Z,9.90
2019-05-06T04:11:53.903Z,8.93
2019-05-06T04:16:13.974Z,11.17
2019-05-06T04:20:43.593Z,11.00
2019-05-06T04:24:55.307Z,10.07
2019-05-06T04:28:58.195Z,11.00
2019-05-06T04:33:03.281Z,9.03
2019-05-06T04:37:08.160Z,13.33
2019-05-06T04:41:13.649Z,12.07
2019-05-06T04:45:17.246Z,10.20
2019-05-06T04:49:23.726Z,15.93
2019-05-06T04:53:27.001Z,15.43
2019-05-06T04:57:33.637Z,18.03
2019-05-06T05:01:38.635Z,11.90
2019-05-06T05:05:41.200Z,11.00
2019-05-06T05:09:44.847Z,15.07
2019-05-06T05:14:02.974Z,10.57
2019-05-06T05:18:38.102Z,12.87
2019-05-06T05:22:42.347Z,12.57
2019-05-06T05:26:47.068Z,14.33
2019-05-06T05:30:49.400Z,12.47
2019-05-06T05:34:52.336Z,16.10
2019-05-06T05:38:55.221Z,10.87
2019-05-06T05:43:17.293Z,12.23
2019-05-06T05:47:21.978Z,13.30
2019-05-06T05:51:24.413Z,10.43
2019-05-06T05:55:28.191Z,15.27
2019-05-06T05:59:32.830Z,11.70
2019-05-06T06:03:35.231Z,11.40
2019-05-06T06:07:37.776Z,9.13
2019-05-06T06:11:53.209Z,11.53
2019-05-06T06:16:18.158Z,10.37
2019-05-06T06:20:42.399Z,9.03
2019-05-06T06:24:43.592Z,13.30
2019-05-06T06:28:46.482Z,7.37
2019-05-06T06:32:49.213Z,10.00
2019-05-06T06:37:29.185Z,15.27
2019-05-06T06:41:32.984Z,12.43
2019-05-06T06:45:35.827Z,8.07
2019-05-06T06:49:38.398Z,9.00
2019-05-06T06:53:42.102Z,10.17
2019-05-06T06:58:07.723Z,13.50
2019-05-06T07:02:19.190Z,8.03
2019-05-06T07:06:29.557Z,8.33
2019-05-06T07:10:43.926Z,9.07
2019-05-06T07:14:46.664Z,10.30
2019-05-06T07:18:49.264Z,6.73
2019-05-06T07:22:53.021Z,7.87
2019-05-06T07:27:22.796Z,6.83
2019-05-06T07:31:26.721Z,6.63
2019-05-06T07:35:38.493Z,7.77
2019-05-06T07:39:35.416Z,6.20
2019-05-06T07:44:02.179Z,7.00
2019-05-06T07:48:06.922Z,7.80
2019-05-06T07:52:12.384Z,5.80
2019-05-06T07:56:18.309Z,5.77
2019-05-06T08:00:22.927Z,11.10
2019-05-06T08:04:26.204Z,9.80
2019-05-06T08:08:28.724Z,5.17
2019-05-06T08:12:32.655Z,5.10
2019-05-06T08:16:41.855Z,4.50
2019-05-06T08:20:43.089Z,7.50
2019-05-06T08:24:47.691Z,6.07
2019-05-06T08:28:52.371Z,6.50
2019-05-06T08:32:57.666Z,6.43
2019-05-06T08:37:25.585Z,9.60
2019-05-06T08:41:30.064Z,6.17
2019-05-06T08:45:32.586Z,7.57
2019-05-06T08:49:52.911Z,6.20
2019-05-06T08:54:03.074Z,9.00
2019-05-06T08:58:05.038Z,9.53
2019-05-06T09:02:07.815Z,6.63
2019-05-06T09:06:26.021Z,9.40
2019-05-06T09:10:14.885Z,6.23
2019-05-06T09:14:17.460Z,7.73
2019-05-06T09:18:20.027Z,4.97
2019-05-06T09:22:23.467Z,4.63
2019-05-06T09:26:35.583Z,6.00
2019-05-06T09:30:43.371Z,4.03
2019-05-06T09:34:54.989Z,4.50
2019-05-06T09:38:57.576Z,10.17
2019-05-06T09:43:04.712Z,6.97
2019-05-06T09:47:09.773Z,6.47
2019-05-06T09:51:13.655Z,8.93
2019-05-06T09:55:29.322Z,10.17
2019-05-06T09:59:32.247Z,5.50
2019-05-06T10:03:34.821Z,7.43
2019-05-06T10:07:37.379Z,5.57
2019-05-06T10:11:42.196Z,5.30
2019-05-06T10:15:44.276Z,6.57
2019-05-06T10:19:46.796Z,4.00
2019-05-06T10:23:49.352Z,2.50
2019-05-06T10:27:53.695Z,5.20
2019-05-06T10:32:22.462Z,7.70
2019-05-06T10:36:32.556Z,8.23
2019-05-06T10:40:58.981Z,5.50
2019-05-06T10:45:14.872Z,4.63
2019-05-06T10:49:17.489Z,1.77
2019-05-06T10:53:23.404Z,4.93
2019-05-06T10:57:43.059Z,3.60
2019-05-06T11:01:47.233Z,1.97
2019-05-06T11:05:50.207Z,1.90
2019-05-06T11:09:53.327Z,3.17
2019-05-06T11:13:56.022Z,3.43
2019-05-06T11:17:58.659Z,2.90
2019-05-06T11:22:03.520Z,4.57
2019-05-06T11:26:05.617Z,4.10
2019-05-06T11:30:13.977Z,2.33
2019-05-06T11:34:34.983Z,2.50
2019-05-06T11:38:37.586Z,2.93
2019-05-06T11:42:40.184Z,2.13
2019-05-06T11:46:43.009Z,4.40
2019-05-06T11:50:48.609Z,3.93
2019-05-06T11:54:52.829Z,3.53
2019-05-06T11:58:56.778Z,3.87
2019-05-06T12:02:59.345Z,6.00
2019-05-06T12:07:10.447Z,1.60
2019-05-06T12:11:06.319Z,6.40
2019-05-06T12:15:09.163Z,3.53
2019-05-06T12:19:13.093Z,1.60
2019-05-06T12:23:15.894Z,4.30
2019-05-06T12:27:36.554Z,3.13
2019-05-06T12:31:39.143Z,2.50
2019-05-06T12:35:45.466Z,2.20
2019-05-06T12:39:54.594Z,1.97
2019-05-06T12:43:57.297Z,3.90
2019-05-06T12:48:16.714Z,5.57
2019-05-06T12:52:19.373Z,3.90
2019-05-06T12:56:21.974Z,3.73
2019-05-06T13:00:25.192Z,5.33
2019-05-06T13:04:46.028Z,6.13
2019-05-06T13:08:49.696Z,7.80
2019-05-06T13:12:37.424Z,3.70
2019-05-06T13:16:42.314Z,7.13
2019-05-06T13:20:49.901Z,5.37
2019-05-06T13:24:48.817Z,4.20
2019-05-06T13:28:57.786Z,6.30
2019-05-06T13:33:07.272Z,8.03
2019-05-06T13:37:09.940Z,6.90
2019-05-06T13:41:12.751Z,7.67
2019-05-06T13:45:16.811Z,5.80
2019-05-06T13:49:37.170Z,5.20
2019-05-06T13:53:43.980Z,5.07
2019-05-06T13:57:44.110Z,4.90
2019-05-06T14:02:09.190Z,6.20
2019-05-06T14:06:12.343Z,4.13
2019-05-06T14:10:15.342Z,5.83
2019-05-06T14:14:17.846Z,8.50
2019-05-06T14:18:22.417Z,6.73
2019-05-06T14:22:24.787Z,8.70
2019-05-06T14:26:44.815Z,5.77
2019-05-06T14:30:58.746Z,3.63
2019-05-06T14:35:01.323Z,11.10
2019-05-06T14:39:07.203Z,5.63
2019-05-06T14:43:09.745Z,10.03
2019-05-06T14:47:39.188Z,5.33
2019-05-06T14:51:43.558Z,6.70
2019-05-06T14:55:46.724Z,9.83
2019-05-06T14:59:54.308Z,5.33
2019-05-06T15:03:54.874Z,5.10
2019-05-06T15:07:57.991Z,5.73
2019-05-06T15:12:02.342Z,6.17
2019-05-06T15:16:05.111Z,8.90
2019-05-06T15:20:11.561Z,9.00
2019-05-06T15:24:14.672Z,12.10
2019-05-06T15:28:17.359Z,7.10
2019-05-06T15:32:36.882Z,5.77
2019-05-06T15:36:48.014Z,14.00
2019-05-06T15:40:52.451Z,5.90
2019-05-06T15:44:55.001Z,6.10
2019-05-06T15:48:57.529Z,4.07
2019-05-06T15:53:01.932Z,5.97
2019-05-06T15:57:04.552Z,7.13
2019-05-06T16:01:07.091Z,4.77
2019-05-06T16:05:13.985Z,6.07
2019-05-06T16:09:15.944Z,6.13
2019-05-06T16:13:18.747Z,5.30
2019-05-06T16:17:24.002Z,4.73
2019-05-06T16:21:26.550Z,5.80
2019-05-06T16:25:29.129Z,5.97
2019-05-06T16:29:37.509Z,7.40
2019-05-06T16:33:40.256Z,6.27
2019-05-06T16:37:43.007Z,8.40
2019-05-06T16:41:45.570Z,10.20
2019-05-06T16:45:48.255Z,8.07
2019-05-06T16:49:53.025Z,7.10
2019-05-06T16:53:55.230Z,5.90
2019-05-06T16:58:05.762Z,5.03
2019-05-06T17:02:15.082Z,4.77
2019-05-06T17:06:26.814Z,4.97
2019-05-06T17:10:29.413Z,4.70
2019-05-06T17:14:32.495Z,5.03
2019-05-06T17:18:35.172Z,6.70
2019-05-06T17:22:37.935Z,5.60
2019-05-06T17:26:42.739Z,4.20
2019-05-06T17:30:53.670Z,3.93
2019-05-06T17:34:58.404Z,6.50
2019-05-06T17:39:02.698Z,5.50
2019-05-06T17:43:05.347Z,4.40
2019-05-06T17:47:32.068Z,5.80
2019-05-06T17:51:42.442Z,5.00
2019-05-06T17:55:45.809Z,8.53
2019-05-06T17:59:52.802Z,5.53
2019-05-06T18:03:55.621Z,7.47
2019-05-06T18:07:58.223Z,5.37
2019-05-06T18:12:03.028Z,8.80
2019-05-06T18:16:05.270Z,6.60
2019-05-06T18:20:07.822Z,7.73
2019-05-06T18:24:12.746Z,5.90
2019-05-06T18:28:14.858Z,4.77
2019-05-06T18:32:17.441Z,3.50
2019-05-06T18:36:22.445Z,8.40
2019-05-06T18:40:24.541Z,4.03
2019-05-06T18:44:27.086Z,10.67
2019-05-06T18:48:31.677Z,8.37
2019-05-06T18:52:34.063Z,7.43
2019-05-06T18:56:36.615Z,5.40
2019-05-06T19:00:40.984Z,6.37
2019-05-06T19:04:48.513Z,5.60
2019-05-06T19:08:58.000Z,5.23
2019-05-06T19:13:02.006Z,9.43
2019-05-06T19:17:04.745Z,7.63
2019-05-06T19:21:07.355Z,9.83
2019-05-06T19:25:13.935Z,8.30
2019-05-06T19:29:14.317Z,7.73
2019-05-06T19:33:16.942Z,5.43
2019-05-06T19:37:19.496Z,4.70
2019-05-06T19:41:22.410Z,8.63
2019-05-06T19:45:25.002Z,6.43
2019-05-06T19:49:29.347Z,7.50
2019-05-06T19:53:33.074Z,4.50
2019-05-06T19:57:35.608Z,9.90
2019-05-06T20:01:38.363Z,9.87
2019-05-06T20:05:59.122Z,5.87
2019-05-06T20:10:27.201Z,7.87
2019-05-06T20:14:31.515Z,5.37
2019-05-06T20:18:34.079Z,10.60
2019-05-06T20:22:36.623Z,7.57
2019-05-06T20:26:39.188Z,5.07
2019-05-06T20:30:42.267Z,6.10
2019-05-06T20:34:45.030Z,5.00
2019-05-06T20:38:47.982Z,7.60
2019-05-06T20:42:50.530Z,14.63
2019-05-06T20:46:53.973Z,9.50
2019-05-06T20:50:56.634Z,8.90
2019-05-06T20:54:59.289Z,5.97
2019-05-06T20:59:02.469Z,9.40
2019-05-06T21:03:05.157Z,7.87
2019-05-06T21:07:07.777Z,7.43
2019-05-06T21:11:24.936Z,7.43
2019-05-06T21:15:16.724Z,6.33
2019-05-06T21:19:27.302Z,5.00
2019-05-06T21:23:47.120Z,9.30
2019-05-06T21:27:49.827Z,11.20
2019-05-06T21:31:53.027Z,9.93
2019-05-06T21:35:55.938Z,4.30
2019-05-06T21:39:58.521Z,6.03
2019-05-06T21:44:02.446Z,4.17
2019-05-06T21:48:05.117Z,10.53
2019-05-06T21:52:07.696Z,8.53
2019-05-06T21:56:10.291Z,6.23
2019-05-06T22:00:17.122Z,6.53
2019-05-06T22:04:19.977Z,8.60
2019-05-06T22:08:23.735Z,6.30
2019-05-06T22:12:26.373Z,6.07
2019-05-06T22:16:28.931Z,7.10
2019-05-06T22:20:34.815Z,10.30
2019-05-06T22:24:59.262Z,6.47
2019-05-06T22:29:02.150Z,6.03
2019-05-06T22:33:04.972Z,8.80
2019-05-06T22:37:07.597Z,7.60
2019-05-06T22:41:10.172Z,6.20
2019-05-06T22:45:13.020Z,5.00
2019-05-06T22:49:17.431Z,15.20
2019-05-06T22:53:22.162Z,6.37
2019-05-06T22:57:24.348Z,6.87
2019-05-06T23:02:02.310Z,6.77
2019-05-06T23:06:06.804Z,7.40
2019-05-06T23:10:11.039Z,5.33
2019-05-06T23:14:27.614Z,7.17
2019-05-06T23:18:18.020Z,7.10
2019-05-06T23:22:22.643Z,10.40
2019-05-06T23:26:27.826Z,8.63
2019-05-06T23:30:30.572Z,9.93
2019-05-06T23:34:33.085Z,7.03
2019-05-06T23:39:12.655Z,7.77
2019-05-06T23:43:51.621Z,8.73
2019-05-06T23:48:30.176Z,9.70
2019-05-06T23:53:08.736Z,9.57
2019-05-06T23:57:10.229Z,7.43
